createdAt,value
2022-08-26T00:00:57.882Z,96936.94
2022-08-26T00:03:02.080Z,96945.69
2022-08-26T00:05:06.171Z,96944.47
2022-08-26T00:07:11.845Z,96938.22
2022-08-26T00:09:16.118Z,96942.09
2022-08-26T00:11:26.993Z,96945.47
2022-08-26T00:13:29.842Z,96937.75
2022-08-26T00:15:32.712Z,96938.44
2022-08-26T00:17:35.833Z,96935.75
2022-08-26T00:19:44.192Z,96930.41
2022-08-26T00:21:48.735Z,96939.44
2022-08-26T00:23:52.395Z,96932.16
2022-08-26T00:25:55.277Z,96933.38
2022-08-26T00:27:59.463Z,96931.13
2022-08-26T00:30:02.211Z,96928.63
2022-08-26T00:32:05.210Z,96933.34
2022-08-26T00:34:08.370Z,96928.38
2022-08-26T00:36:20.305Z,96929.91
2022-08-26T00:38:23.321Z,96917.25
2022-08-26T00:40:30.738Z,96920.56
2022-08-26T00:42:33.481Z,96918.50
2022-08-26T00:44:36.257Z,96920.56
2022-08-26T00:46:44.995Z,96926.28
2022-08-26T00:48:53.597Z,96925.97
2022-08-26T00:50:59.360Z,96926.78
2022-08-26T00:53:21.426Z,96917.75
2022-08-26T00:55:34.675Z,96923.75
2022-08-26T00:57:41.067Z,96925.38
2022-08-26T00:59:48.146Z,96923.19
2022-08-26T01:01:51.619Z,96926.91
2022-08-26T01:03:56.495Z,96931.97
2022-08-26T01:06:00.925Z,96933.50
2022-08-26T01:08:05.207Z,96932.56
2022-08-26T01:10:11.305Z,96932.28
2022-08-26T01:12:14.944Z,96937.00
2022-08-26T01:14:27.705Z,96935.66
2022-08-26T01:16:31.922Z,96934.34
2022-08-26T01:18:35.878Z,96932.06
2022-08-26T01:20:47.152Z,96929.75
2022-08-26T01:22:57.210Z,96920.81
2022-08-26T01:25:03.719Z,96927.19
2022-08-26T01:27:09.654Z,96926.28
2022-08-26T01:29:16.804Z,96924.66
2022-08-26T01:31:23.760Z,96921.44
2022-08-26T01:33:39.015Z,96927.00
2022-08-26T01:35:45.688Z,96930.03
2022-08-26T01:37:50.860Z,96920.28
2022-08-26T01:39:57.833Z,96926.28
2022-08-26T01:42:03.233Z,96924.72
2022-08-26T01:44:09.695Z,96928.22
2022-08-26T01:46:14.054Z,96925.44
2022-08-26T01:48:21.218Z,96923.91
2022-08-26T01:50:30.608Z,96932.03
2022-08-26T01:52:36.790Z,96934.38
2022-08-26T01:54:39.537Z,96935.09
2022-08-26T01:56:44.171Z,96938.44
2022-08-26T01:58:50.716Z,96937.03
2022-08-26T02:00:54.254Z,96941.47
2022-08-26T02:03:12.633Z,96944.66
2022-08-26T02:05:18.975Z,96945.72
2022-08-26T02:07:22.548Z,96942.63
2022-08-26T02:09:29.402Z,96945.75
2022-08-26T02:11:34.855Z,96942.03
2022-08-26T02:13:44.552Z,96940.47
2022-08-26T02:15:47.942Z,96946.41
2022-08-26T02:17:52.658Z,96948.34
2022-08-26T02:19:56.683Z,96944.34
2022-08-26T02:22:01.608Z,96952.06
2022-08-26T02:24:11.442Z,96942.31
2022-08-26T02:26:19.338Z,96943.31
2022-08-26T02:28:22.583Z,96939.91
2022-08-26T02:30:32.975Z,96943.91
2022-08-26T02:32:35.573Z,96945.41
2022-08-26T02:34:38.226Z,96941.91
2022-08-26T02:36:41.323Z,96945.03
2022-08-26T02:38:43.913Z,96941.59
2022-08-26T02:40:48.914Z,96941.78
2022-08-26T02:42:56.103Z,96939.50
2022-08-26T02:44:59.928Z,96928.81
2022-08-26T02:47:04.461Z,96933.06
2022-08-26T02:49:08.145Z,96934.81
2022-08-26T02:51:11.369Z,96930.13
2022-08-26T02:53:14.689Z,96938.31
2022-08-26T02:55:17.595Z,96934.38
2022-08-26T02:57:20.655Z,96937.97
2022-08-26T02:59:24.802Z,96927.06
2022-08-26T03:01:30.113Z,96930.47
2022-08-26T03:03:34.365Z,96928.34
2022-08-26T03:05:37.338Z,96931.03
2022-08-26T03:07:40.925Z,96931.38
2022-08-26T03:09:43.579Z,96930.31
2022-08-26T03:11:47.194Z,96935.63
2022-08-26T03:13:50.346Z,96933.09
2022-08-26T03:15:53.031Z,96927.25
2022-08-26T03:17:56.822Z,96932.19
2022-08-26T03:20:01.084Z,96935.69
2022-08-26T03:22:04.815Z,96927.88
2022-08-26T03:24:07.593Z,96925.38
2022-08-26T03:26:12.090Z,96923.31
2022-08-26T03:28:14.812Z,96931.84
2022-08-26T03:30:39.746Z,96930.66
2022-08-26T03:32:48.141Z,96926.69
2022-08-26T03:34:50.942Z,96929.00
2022-08-26T03:36:55.319Z,96926.34
2022-08-26T03:38:58.064Z,96925.84
2022-08-26T03:41:01.003Z,96931.63
2022-08-26T03:43:05.743Z,96934.28
2022-08-26T03:45:11.934Z,96934.38
2022-08-26T03:47:14.620Z,96929.69
2022-08-26T03:49:17.482Z,96927.41
2022-08-26T03:51:20.827Z,96925.88
2022-08-26T03:53:25.132Z,96927.56
2022-08-26T03:55:31.935Z,96924.22
2022-08-26T03:57:34.697Z,96919.16
2022-08-26T03:59:38.276Z,96917.34
2022-08-26T04:01:43.992Z,96924.44
2022-08-26T04:04:00.265Z,96918.69
2022-08-26T04:06:06.079Z,96920.34
2022-08-26T04:08:08.779Z,96926.34
2022-08-26T04:10:20.390Z,96923.84
2022-08-26T04:12:23.076Z,96925.88
2022-08-26T04:14:28.628Z,96925.16
2022-08-26T04:16:31.739Z,96923.03
2022-08-26T04:18:37.114Z,96927.22
2022-08-26T04:20:40.071Z,96924.09
2022-08-26T04:22:43.095Z,96920.72
2022-08-26T04:24:46.364Z,96923.25
2022-08-26T04:26:50.868Z,96926.84
2022-08-26T04:28:56.790Z,96921.44
2022-08-26T04:30:59.399Z,96918.69
2022-08-26T04:33:04.480Z,96927.31
2022-08-26T04:35:15.410Z,96923.75
2022-08-26T04:37:18.019Z,96919.53
2022-08-26T04:39:21.128Z,96920.75
2022-08-26T04:41:23.972Z,96919.78
2022-08-26T04:43:30.594Z,96917.34
2022-08-26T04:45:36.381Z,96922.03
2022-08-26T04:47:39.357Z,96914.94
2022-08-26T04:49:42.005Z,96920.31
2022-08-26T04:51:44.600Z,96917.69
2022-08-26T04:53:47.762Z,96920.09
2022-08-26T04:55:52.422Z,96926.09
2022-08-26T04:57:58.279Z,96922.63
2022-08-26T05:00:02.216Z,96923.94
2022-08-26T05:02:06.919Z,96930.28
2022-08-26T05:04:09.713Z,96924.78
2022-08-26T05:06:13.100Z,96927.50
2022-08-26T05:08:16.588Z,96927.31
2022-08-26T05:10:19.513Z,96933.41
2022-08-26T05:12:23.268Z,96930.75
2022-08-26T05:14:25.899Z,96931.63
2022-08-26T05:16:30.335Z,96938.69
2022-08-26T05:18:35.070Z,96934.72
2022-08-26T05:20:40.587Z,96932.25
2022-08-26T05:22:43.519Z,96935.47
2022-08-26T05:24:46.488Z,96938.34
2022-08-26T05:26:49.559Z,96942.31
2022-08-26T05:28:54.944Z,96942.19
2022-08-26T05:30:58.109Z,96947.47
2022-08-26T05:33:02.505Z,96943.50
2022-08-26T05:35:08.741Z,96943.16
2022-08-26T05:37:11.657Z,96945.69
2022-08-26T05:39:16.361Z,96941.03
2022-08-26T05:41:21.567Z,96950.03
2022-08-26T05:43:24.155Z,96957.47
2022-08-26T05:45:28.341Z,96954.94
2022-08-26T05:47:30.954Z,96961.31
2022-08-26T05:49:34.906Z,96953.75
2022-08-26T05:51:47.802Z,96954.38
2022-08-26T05:53:54.352Z,96954.38
2022-08-26T05:55:58.147Z,96953.88
2022-08-26T05:58:01.048Z,96951.09
2022-08-26T06:00:06.370Z,96954.94
2022-08-26T06:02:09.105Z,96954.13
2022-08-26T06:04:12.611Z,96956.97
2022-08-26T06:06:20.767Z,96956.13
2022-08-26T06:08:30.049Z,96959.53
2022-08-26T06:10:33.414Z,96962.41
2022-08-26T06:12:36.054Z,96956.66
2022-08-26T06:14:38.611Z,96964.72
2022-08-26T06:16:45.032Z,96965.06
2022-08-26T06:18:48.605Z,96971.78
2022-08-26T06:20:57.670Z,96975.72
2022-08-26T06:23:19.719Z,96971.78
2022-08-26T06:25:39.271Z,96968.41
2022-08-26T06:27:41.870Z,96974.16
2022-08-26T06:29:44.440Z,96971.91
2022-08-26T06:31:47.108Z,96979.94
2022-08-26T06:33:52.227Z,96976.78
2022-08-26T06:35:54.817Z,96980.88
2022-08-26T06:37:57.423Z,96970.63
2022-08-26T06:40:01.512Z,96979.88
2022-08-26T06:42:07.153Z,96981.56
2022-08-26T06:44:09.691Z,96978.28
2022-08-26T06:46:14.599Z,96979.72
2022-08-26T06:48:20.032Z,96969.78
2022-08-26T06:50:22.667Z,96976.59
2022-08-26T06:52:25.478Z,96968.44
2022-08-26T06:54:30.237Z,96973.22
2022-08-26T06:56:36.742Z,96975.47
2022-08-26T06:58:40.780Z,96970.66
2022-08-26T07:00:47.416Z,96977.94
2022-08-26T07:02:50.200Z,96968.94
2022-08-26T07:04:52.996Z,96967.50
2022-08-26T07:07:00.218Z,96967.00
2022-08-26T07:09:05.943Z,96969.13
2022-08-26T07:11:13.391Z,96973.91
2022-08-26T07:13:18.173Z,96970.03
2022-08-26T07:15:33.588Z,96973.97
2022-08-26T07:17:36.295Z,96972.50
2022-08-26T07:19:39.147Z,96969.00
2022-08-26T07:21:42.453Z,96971.38
2022-08-26T07:23:45.338Z,96967.63
2022-08-26T07:25:49.497Z,96972.41
2022-08-26T07:27:54.022Z,96974.69
2022-08-26T07:29:58.455Z,96983.22
2022-08-26T07:32:01.297Z,96982.00
2022-08-26T07:34:04.507Z,96979.91
2022-08-26T07:36:08.861Z,96983.00
2022-08-26T07:38:11.528Z,96976.91
2022-08-26T07:40:16.995Z,96981.06
2022-08-26T07:42:21.729Z,96977.72
2022-08-26T07:44:27.106Z,96972.53
2022-08-26T07:46:31.103Z,96984.84
2022-08-26T07:48:34.070Z,96980.38
2022-08-26T07:50:49.115Z,96972.16
2022-08-26T07:52:53.020Z,96977.34
2022-08-26T07:54:56.968Z,96979.59
2022-08-26T07:56:59.794Z,96982.81
2022-08-26T07:59:02.462Z,96978.94
2022-08-26T08:01:05.720Z,96985.66
2022-08-26T08:03:11.563Z,96980.09
2022-08-26T08:05:16.415Z,96981.38
2022-08-26T08:07:20.148Z,96981.09
2022-08-26T08:09:23.559Z,96984.31
2022-08-26T08:11:29.492Z,96974.16
2022-08-26T08:13:32.967Z,96976.53
2022-08-26T08:15:37.548Z,96970.00
2022-08-26T08:17:43.349Z,96972.38
2022-08-26T08:19:48.019Z,96970.28
2022-08-26T08:21:50.691Z,96976.28
2022-08-26T08:23:55.307Z,96975.88
2022-08-26T08:26:02.431Z,96978.25
2022-08-26T08:28:05.327Z,96978.81
2022-08-26T08:30:10.800Z,96971.56
2022-08-26T08:32:17.758Z,96971.22
2022-08-26T08:34:21.423Z,96975.25
2022-08-26T08:36:25.961Z,96966.19
2022-08-26T08:38:38.664Z,96970.38
2022-08-26T08:40:42.384Z,96968.41
2022-08-26T08:42:48.600Z,96968.28
2022-08-26T08:44:54.043Z,96961.88
2022-08-26T08:47:02.361Z,96965.22
2022-08-26T08:49:05.003Z,96963.16
2022-08-26T08:51:19.749Z,96966.34
2022-08-26T08:53:31.029Z,96958.13
2022-08-26T08:55:44.006Z,96962.16
2022-08-26T08:58:05.003Z,96960.50
2022-08-26T09:00:12.561Z,96953.38
2022-08-26T09:02:24.930Z,96955.88
2022-08-26T09:04:54.999Z,96954.88
2022-08-26T09:07:02.732Z,96960.75
2022-08-26T09:09:08.077Z,96957.97
2022-08-26T09:11:11.437Z,96956.16
2022-08-26T09:13:17.207Z,96961.47
2022-08-26T09:15:36.192Z,96959.50
2022-08-26T09:17:48.976Z,96952.38
2022-08-26T09:19:55.022Z,96952.09
2022-08-26T09:21:59.597Z,96949.31
2022-08-26T09:24:02.236Z,96955.16
2022-08-26T09:26:17.864Z,96947.19
2022-08-26T09:28:23.051Z,96937.28
2022-08-26T09:30:29.630Z,96946.63
2022-08-26T09:32:32.237Z,96950.69
2022-08-26T09:34:36.101Z,96943.84
2022-08-26T09:36:41.154Z,96940.91
2022-08-26T09:38:44.784Z,96944.75
2022-08-26T09:40:59.171Z,96944.06
2022-08-26T09:43:22.140Z,96934.41
2022-08-26T09:45:29.436Z,96935.09
2022-08-26T09:47:34.984Z,96934.66
2022-08-26T09:49:39.779Z,96933.69
2022-08-26T09:51:44.262Z,96924.59
2022-08-26T09:53:54.683Z,96925.84
2022-08-26T09:56:15.315Z,96917.56
2022-08-26T09:58:34.281Z,96910.81
2022-08-26T10:00:39.222Z,96902.38
2022-08-26T10:02:47.891Z,96903.78
2022-08-26T10:04:54.577Z,96900.13
2022-08-26T10:07:00.095Z,96899.00
2022-08-26T10:09:08.257Z,96895.03
2022-08-26T10:11:18.791Z,96888.44
2022-08-26T10:13:29.544Z,96881.88
2022-08-26T10:15:43.369Z,96884.94
2022-08-26T10:17:57.532Z,96881.28
2022-08-26T10:20:22.894Z,96880.16
2022-08-26T10:22:35.910Z,96873.38
2022-08-26T10:24:42.532Z,96871.63
2022-08-26T10:26:59.721Z,96875.31
2022-08-26T10:29:11.286Z,96870.88
2022-08-26T10:31:27.704Z,96864.06
2022-08-26T10:33:31.428Z,96857.09
2022-08-26T10:35:36.605Z,96851.63
2022-08-26T10:37:42.510Z,96852.38
2022-08-26T10:39:55.276Z,96847.53
2022-08-26T10:42:05.762Z,96853.03
2022-08-26T10:44:13.170Z,96862.50
2022-08-26T10:46:22.330Z,96863.88
2022-08-26T10:48:36.056Z,96862.59
2022-08-26T10:50:41.395Z,96854.28
2022-08-26T10:52:55.652Z,96847.81
2022-08-26T10:55:04.070Z,96848.44
2022-08-26T10:57:20.399Z,96844.69
2022-08-26T10:59:37.092Z,96844.69
2022-08-26T11:01:43.420Z,96845.19
2022-08-26T11:03:58.032Z,96839.25
2022-08-26T11:06:25.589Z,96835.97
2022-08-26T11:08:31.646Z,96837.84
2022-08-26T11:11:04.491Z,96831.50
2022-08-26T11:13:07.821Z,96830.69
2022-08-26T11:15:14.969Z,96824.34
2022-08-26T11:17:57.979Z,96829.19
2022-08-26T11:20:09.524Z,96817.19
2022-08-26T11:22:28.627Z,96815.72
2022-08-26T11:24:42.388Z,96805.56
2022-08-26T11:26:56.114Z,96805.06
2022-08-26T11:29:03.135Z,96810.38
2022-08-26T11:31:11.416Z,96807.38
2022-08-26T11:33:59.994Z,96802.91
2022-08-26T11:36:02.928Z,96804.22
2022-08-26T11:38:19.390Z,96800.88
2022-08-26T11:40:26.373Z,96800.53
2022-08-26T11:42:40.999Z,96800.53
2022-08-26T11:44:49.419Z,96800.22
2022-08-26T11:46:59.456Z,96795.75
2022-08-26T11:49:05.275Z,96787.59
2022-08-26T11:51:11.066Z,96789.25
2022-08-26T11:53:19.306Z,96790.63
2022-08-26T11:55:23.284Z,96788.25
2022-08-26T11:57:27.615Z,96792.13
2022-08-26T12:01:41.510Z,96794.00
2022-08-26T12:03:51.098Z,96793.16
2022-08-26T12:05:55.085Z,96793.81
2022-08-26T12:08:03.648Z,96800.81
2022-08-26T12:10:07.662Z,96800.81
2022-08-26T12:12:12.928Z,96793.66
2022-08-26T12:14:19.584Z,96796.31
2022-08-26T12:16:25.760Z,96798.47
2022-08-26T12:18:35.366Z,96798.97
2022-08-26T12:20:48.179Z,96793.81
2022-08-26T12:22:51.139Z,96796.63
2022-08-26T12:24:56.737Z,96793.28
2022-08-26T12:27:16.544Z,96783.09
2022-08-26T12:29:27.192Z,96788.41
2022-08-26T12:31:33.035Z,96787.22
2022-08-26T12:33:36.597Z,96792.19
2022-08-26T12:35:41.551Z,96789.78
2022-08-26T12:37:49.323Z,96782.56
2022-08-26T12:39:53.995Z,96775.16
2022-08-26T12:41:58.278Z,96777.91
2022-08-26T12:44:01.003Z,96776.25
2022-08-26T12:46:04.614Z,96774.72
2022-08-26T12:48:13.479Z,96768.47
2022-08-26T12:50:20.161Z,96772.41
2022-08-26T12:52:30.811Z,96767.34
2022-08-26T12:54:56.080Z,96758.53
2022-08-26T12:57:10.375Z,96752.38
2022-08-26T12:59:23.759Z,96749.75
2022-08-26T13:01:26.433Z,96751.25
2022-08-26T13:03:32.105Z,96755.03
2022-08-26T13:05:36.080Z,96753.66
2022-08-26T13:07:40.880Z,96756.19
2022-08-26T13:09:43.506Z,96762.47
2022-08-26T13:11:59.451Z,96761.69
2022-08-26T13:14:07.393Z,96759.50
2022-08-26T13:16:10.212Z,96756.41
2022-08-26T13:18:12.827Z,96756.66
2022-08-26T13:20:15.661Z,96757.13
2022-08-26T13:22:22.901Z,96754.03
2022-08-26T13:24:32.112Z,96752.44
2022-08-26T13:26:35.109Z,96757.97
2022-08-26T13:28:37.830Z,96762.25
2022-08-26T13:30:42.550Z,96758.75
2022-08-26T13:32:45.194Z,96757.97
2022-08-26T13:34:51.742Z,96762.22
2022-08-26T13:36:56.391Z,96769.28
2022-08-26T13:38:58.962Z,96775.94
2022-08-26T13:41:03.673Z,96778.69
2022-08-26T13:43:06.311Z,96784.84
2022-08-26T13:45:10.716Z,96782.28
2022-08-26T13:47:13.371Z,96772.13
2022-08-26T13:49:16.165Z,96787.31
2022-08-26T13:51:20.315Z,96781.66
2022-08-26T13:53:23.174Z,96778.81
2022-08-26T13:55:25.811Z,96769.22
2022-08-26T13:57:31.001Z,96758.84
2022-08-26T13:59:33.568Z,96756.69
2022-08-26T14:01:39.631Z,96743.28
2022-08-26T14:03:42.402Z,96740.47
2022-08-26T14:05:45.112Z,96740.72
2022-08-26T14:07:47.691Z,96737.53
2022-08-26T14:09:50.374Z,96734.53
2022-08-26T14:11:54.872Z,96730.19
2022-08-26T14:13:59.300Z,96713.03
2022-08-26T14:16:03.582Z,96716.22
2022-08-26T14:18:09.766Z,96705.03
2022-08-26T14:20:15.628Z,96702.78
2022-08-26T14:22:21.080Z,96695.94
2022-08-26T14:24:23.688Z,96694.59
2022-08-26T14:26:29.442Z,96698.34
2022-08-26T14:28:32.431Z,96697.59
2022-08-26T14:30:38.111Z,96711.03
2022-08-26T14:32:45.350Z,96710.97
2022-08-26T14:34:47.918Z,96711.09
2022-08-26T14:36:50.569Z,96715.31
2022-08-26T14:38:54.133Z,96728.31
2022-08-26T14:40:56.804Z,96746.84
2022-08-26T14:43:00.484Z,96789.88
2022-08-26T14:45:06.640Z,96796.75
2022-08-26T14:47:11.096Z,96780.72
2022-08-26T14:49:14.680Z,96779.94
2022-08-26T14:51:17.299Z,96781.06
2022-08-26T14:53:37.759Z,96784.59
2022-08-26T14:55:42.950Z,96767.91
2022-08-26T14:57:45.536Z,96758.59
2022-08-26T14:59:50.250Z,96746.09
2022-08-26T15:01:54.342Z,96756.44
2022-08-26T15:04:01.127Z,96758.94
2022-08-26T15:06:04.176Z,96754.41
2022-08-26T15:08:10.456Z,96748.91
2022-08-26T15:10:16.008Z,96762.25
2022-08-26T15:12:18.600Z,96759.22
2022-08-26T15:14:22.751Z,96763.91
2022-08-26T15:16:25.350Z,96761.41
2022-08-26T15:18:28.092Z,96762.88
2022-08-26T15:22:42.348Z,96762.59
2022-08-26T15:24:45.270Z,96766.22
2022-08-26T15:26:49.400Z,96758.72
2022-08-26T15:28:52.462Z,96761.06
2022-08-26T15:30:55.293Z,96755.41
2022-08-26T15:32:57.908Z,96754.06
2022-08-26T15:35:00.520Z,96745.59
2022-08-26T15:37:05.522Z,96754.75
2022-08-26T15:39:08.529Z,96764.28
2022-08-26T15:41:11.718Z,96765.31
2022-08-26T15:43:27.635Z,96750.91
2022-08-26T15:45:33.027Z,96756.25
2022-08-26T15:47:55.213Z,96755.91
2022-08-26T15:49:58.398Z,96757.28
2022-08-26T15:52:02.756Z,96753.44
2022-08-26T15:54:12.186Z,96740.59
2022-08-26T15:56:14.782Z,96739.44
2022-08-26T15:58:17.435Z,96743.94
2022-08-26T16:00:20.672Z,96745.09
2022-08-26T16:02:28.151Z,96739.09
2022-08-26T16:04:34.356Z,96742.28
2022-08-26T16:06:39.702Z,96736.44
2022-08-26T16:08:42.504Z,96741.28
2022-08-26T16:10:50.602Z,96744.56
2022-08-26T16:12:53.875Z,96746.91
2022-08-26T16:14:56.460Z,96755.41
2022-08-26T16:16:59.029Z,96759.56
2022-08-26T16:19:06.868Z,96762.59
2022-08-26T16:21:15.239Z,96767.72
2022-08-26T16:23:18.729Z,96769.53
2022-08-26T16:25:21.536Z,96791.72
2022-08-26T16:27:25.548Z,96801.34
2022-08-26T16:29:28.268Z,96808.16
2022-08-26T16:31:31.059Z,96814.94
2022-08-26T16:33:33.921Z,96819.06
2022-08-26T16:35:36.714Z,96826.03
2022-08-26T16:37:40.302Z,96821.88
2022-08-26T16:39:45.118Z,96840.81
2022-08-26T16:41:47.928Z,96841.13
2022-08-26T16:43:52.108Z,96844.53
2022-08-26T16:45:54.838Z,96853.38
2022-08-26T16:47:57.576Z,96854.22
2022-08-26T16:50:00.536Z,96854.53
2022-08-26T16:52:03.454Z,96851.03
2022-08-26T16:54:08.534Z,96856.97
2022-08-26T16:56:13.866Z,96857.47
2022-08-26T16:58:16.713Z,96850.91
2022-08-26T17:00:27.847Z,96860.72
2022-08-26T17:02:30.524Z,96851.41
2022-08-26T17:04:33.194Z,96850.56
2022-08-26T17:06:35.896Z,96847.91
2022-08-26T17:08:39.099Z,96846.69
2022-08-26T17:12:49.977Z,96845.19
2022-08-26T17:14:52.535Z,96856.25
2022-08-26T17:16:57.009Z,96856.03
2022-08-26T17:19:00.836Z,96846.44
2022-08-26T17:21:05.165Z,96849.94
2022-08-26T17:23:10.646Z,96853.91
2022-08-26T17:25:15.524Z,96848.09
2022-08-26T17:27:18.265Z,96838.34
2022-08-26T17:29:20.837Z,96840.22
2022-08-26T17:31:24.495Z,96839.91
2022-08-26T17:33:29.472Z,96837.13
2022-08-26T17:35:32.435Z,96840.09
2022-08-26T17:37:35.650Z,96840.63
2022-08-26T17:39:43.860Z,96848.16
2022-08-26T17:41:46.450Z,96858.47
2022-08-26T17:43:49.316Z,96867.53
2022-08-26T17:45:52.621Z,96874.63
2022-08-26T17:47:55.781Z,96878.19
2022-08-26T17:50:00.835Z,96892.41
2022-08-26T17:52:03.907Z,96887.63
2022-08-26T17:54:07.488Z,96889.28
2022-08-26T17:56:13.672Z,96893.47
2022-08-26T17:58:17.142Z,96898.19
2022-08-26T18:00:22.279Z,96906.25
2022-08-26T18:02:24.983Z,96891.81
2022-08-26T18:04:27.719Z,96898.25
2022-08-26T18:06:31.774Z,96897.13
2022-08-26T18:08:34.319Z,96897.34
2022-08-26T18:10:36.904Z,96905.09
2022-08-26T18:12:40.945Z,96911.41
2022-08-26T18:14:43.496Z,96903.81
2022-08-26T18:16:46.385Z,96901.53
2022-08-26T18:18:53.336Z,96898.03
2022-08-26T18:21:01.413Z,96896.50
2022-08-26T18:23:06.432Z,96892.63
2022-08-26T18:25:10.189Z,96883.72
2022-08-26T18:27:12.751Z,96887.13
2022-08-26T18:29:16.960Z,96891.06
2022-08-26T18:31:19.963Z,96882.69
2022-08-26T18:33:22.635Z,96892.75
2022-08-26T18:35:28.301Z,96894.88
2022-08-26T18:37:32.190Z,96898.00
2022-08-26T18:39:36.100Z,96899.66
2022-08-26T18:41:42.300Z,96899.28
2022-08-26T18:43:44.885Z,96905.53
2022-08-26T18:45:47.577Z,96907.34
2022-08-26T18:47:50.227Z,96912.00
2022-08-26T18:49:52.834Z,96910.31
2022-08-26T18:51:55.472Z,96917.31
2022-08-26T18:53:58.987Z,96919.28
2022-08-26T18:56:02.875Z,96921.78
2022-08-26T18:58:05.597Z,96921.63
2022-08-26T19:00:10.170Z,96922.56
2022-08-26T19:02:13.314Z,96926.91
2022-08-26T19:04:15.992Z,96928.19
2022-08-26T19:06:21.364Z,96942.91
2022-08-26T19:08:23.945Z,96945.84
2022-08-26T19:10:26.665Z,96949.47
2022-08-26T19:12:30.671Z,96958.44
2022-08-26T19:14:36.738Z,96971.03
2022-08-26T19:16:39.391Z,96973.41
2022-08-26T19:18:42.298Z,96972.44
2022-08-26T19:20:47.802Z,96980.97
2022-08-26T19:22:50.351Z,96991.59
2022-08-26T19:24:52.984Z,97002.38
2022-08-26T19:26:58.289Z,97000.72
2022-08-26T19:29:02.799Z,97002.94
2022-08-26T19:31:05.395Z,97000.00
2022-08-26T19:33:09.158Z,96994.50
2022-08-26T19:35:11.833Z,96991.53
2022-08-26T19:37:14.610Z,96980.75
2022-08-26T19:39:17.548Z,96985.69
2022-08-26T19:41:27.788Z,96987.25
2022-08-26T19:43:40.021Z,96985.13
2022-08-26T19:45:45.062Z,96993.31
2022-08-26T19:47:47.985Z,96980.88
2022-08-26T19:49:54.500Z,96991.38
2022-08-26T19:51:57.164Z,96987.06
2022-08-26T19:54:01.639Z,96986.19
2022-08-26T19:56:04.540Z,96989.84
2022-08-26T19:58:07.916Z,96984.38
2022-08-26T20:00:14.778Z,96968.97
2022-08-26T20:02:19.223Z,96974.59
2022-08-26T20:04:22.127Z,96970.78
2022-08-26T20:06:25.066Z,96971.63
2022-08-26T20:08:28.538Z,96976.53
2022-08-26T20:10:34.948Z,96967.88
2022-08-26T20:12:37.703Z,96968.44
2022-08-26T20:14:40.651Z,96967.47
2022-08-26T20:16:43.557Z,96952.63
2022-08-26T20:19:05.467Z,96953.06
2022-08-26T20:21:25.867Z,96946.50
2022-08-26T20:23:28.440Z,96950.56
2022-08-26T20:25:32.475Z,96952.63
2022-08-26T20:27:38.270Z,96953.91
2022-08-26T20:29:42.699Z,96956.13
2022-08-26T20:31:46.391Z,96962.72
2022-08-26T20:33:51.575Z,96964.81
2022-08-26T20:35:54.200Z,96967.19
2022-08-26T20:37:56.782Z,96977.25
2022-08-26T20:39:59.451Z,96972.38
2022-08-26T20:42:02.640Z,96978.53
2022-08-26T20:44:05.899Z,96973.31
2022-08-26T20:46:12.780Z,96973.06
2022-08-26T20:48:21.529Z,96970.84
2022-08-26T20:50:25.487Z,96974.88
2022-08-26T20:52:28.070Z,96974.63
2022-08-26T20:54:30.752Z,96983.56
2022-08-26T20:56:34.042Z,96982.28
2022-08-26T20:58:37.894Z,96985.78
2022-08-26T21:00:40.515Z,96990.25
2022-08-26T21:02:43.766Z,96986.06
2022-08-26T21:04:46.463Z,96985.50
2022-08-26T21:06:52.881Z,96978.81
2022-08-26T21:08:56.941Z,96977.13
2022-08-26T21:11:00.409Z,96984.53
2022-08-26T21:13:03.168Z,96983.97
2022-08-26T21:15:07.381Z,96990.38
2022-08-26T21:17:09.947Z,96984.53
2022-08-26T21:19:14.959Z,96981.72
2022-08-26T21:21:17.847Z,96985.94
2022-08-26T21:23:23.142Z,96979.91
2022-08-26T21:25:28.006Z,96978.09
2022-08-26T21:27:30.657Z,96977.38
2022-08-26T21:29:33.236Z,96975.81
2022-08-26T21:31:36.413Z,96977.22
2022-08-26T21:33:40.006Z,96982.94
2022-08-26T21:35:42.599Z,96978.19
2022-08-26T21:37:45.181Z,96987.22
2022-08-26T21:39:49.157Z,96987.50
2022-08-26T21:41:51.772Z,96987.94
2022-08-26T21:43:59.126Z,96990.34
2022-08-26T21:46:03.912Z,96991.31
2022-08-26T21:48:07.794Z,96989.50
2022-08-26T21:50:11.306Z,96995.72
2022-08-26T21:52:13.914Z,96996.25
2022-08-26T21:54:18.005Z,96991.38
2022-08-26T21:56:24.724Z,96996.09
2022-08-26T21:58:27.338Z,96998.03
2022-08-26T22:00:29.955Z,96993.16
2022-08-26T22:02:32.690Z,96990.19
2022-08-26T22:04:37.309Z,96988.97
2022-08-26T22:06:43.240Z,96990.63
2022-08-26T22:08:45.858Z,96996.22
2022-08-26T22:10:51.778Z,96994.50
2022-08-26T22:12:55.972Z,96989.66
2022-08-26T22:14:59.229Z,96995.66
2022-08-26T22:17:02.917Z,97000.81
2022-08-26T22:19:05.613Z,97003.97
2022-08-26T22:21:10.287Z,97000.09
2022-08-26T22:23:14.762Z,96997.31
2022-08-26T22:25:20.417Z,97002.88
2022-08-26T22:27:23.008Z,97008.31
2022-08-26T22:29:27.000Z,97011.66
2022-08-26T22:31:37.362Z,97005.66
2022-08-26T22:33:42.620Z,97004.53
2022-08-26T22:35:47.232Z,97015.19
2022-08-26T22:37:49.888Z,97010.16
2022-08-26T22:39:52.479Z,97019.75
2022-08-26T22:41:56.796Z,97026.97
2022-08-26T22:43:59.415Z,97026.66
2022-08-26T22:46:03.542Z,97029.47
2022-08-26T22:48:06.523Z,97030.63
2022-08-26T22:50:10.140Z,97036.78
2022-08-26T22:52:12.699Z,97036.03
2022-08-26T22:54:16.439Z,97038.66
2022-08-26T22:56:21.100Z,97040.22
2022-08-26T22:58:30.833Z,97036.78
2022-08-26T23:00:34.377Z,97038.50
2022-08-26T23:02:38.345Z,97040.63
2022-08-26T23:04:41.305Z,97032.09
2022-08-26T23:06:47.666Z,97046.16
2022-08-26T23:08:50.617Z,97046.13
2022-08-26T23:10:53.356Z,97045.22
2022-08-26T23:12:55.936Z,97045.00
2022-08-26T23:14:58.555Z,97050.19
2022-08-26T23:17:01.267Z,97045.38
2022-08-26T23:19:08.396Z,97052.31
2022-08-26T23:21:11.905Z,97046.06
2022-08-26T23:23:14.459Z,97046.25
2022-08-26T23:25:17.083Z,97046.13
2022-08-26T23:27:20.431Z,97042.88
2022-08-26T23:29:23.053Z,97031.88
2022-08-26T23:31:25.812Z,97032.31
2022-08-26T23:33:48.841Z,97032.44
2022-08-26T23:35:51.805Z,97028.13
2022-08-26T23:37:54.626Z,97026.44
2022-08-26T23:40:04.518Z,97019.06
2022-08-26T23:42:07.476Z,97020.59
2022-08-26T23:44:10.139Z,97020.63
2022-08-26T23:46:12.801Z,97019.13
2022-08-26T23:48:15.387Z,97015.22
2022-08-26T23:50:44.648Z,97013.38
2022-08-26T23:53:05.529Z,97017.16
2022-08-26T23:55:10.658Z,97015.03
2022-08-26T23:57:13.261Z,97014.72
2022-08-26T23:59:15.859Z,97013.63
